createdAt,value
2016-09-05T00:00:41.976Z,0
2016-09-05T00:01:41.955Z,0
2016-09-05T00:02:41.932Z,0
2016-09-05T00:03:41.909Z,0
2016-09-05T00:04:41.889Z,0
2016-09-05T00:05:41.869Z,0
2016-09-05T00:06:41.846Z,0
2016-09-05T00:07:41.820Z,0
2016-09-05T00:08:41.819Z,0
2016-09-05T00:09:41.783Z,0
2016-09-05T00:10:41.756Z,0
2016-09-05T00:11:41.731Z,0
2016-09-05T00:12:41.707Z,0
2016-09-05T00:13:41.690Z,0
2016-09-05T00:14:41.675Z,0
2016-09-05T00:15:41.648Z,0
2016-09-05T00:16:41.622Z,0
2016-09-05T00:17:41.599Z,0
2016-09-05T00:18:41.582Z,0
2016-09-05T00:19:41.566Z,0
2016-09-05T00:20:41.539Z,0
2016-09-05T00:21:41.520Z,0
2016-09-05T00:22:41.491Z,0
2016-09-05T00:23:41.474Z,0
2016-09-05T00:24:41.451Z,0
2016-09-05T00:25:41.429Z,0
2016-09-05T00:26:41.410Z,0
2016-09-05T00:27:41.382Z,0
2016-09-05T00:28:41.366Z,0
2016-09-05T00:29:41.343Z,0
2016-09-05T00:30:41.336Z,0
2016-09-05T00:31:41.307Z,0
2016-09-05T00:32:41.278Z,0
2016-09-05T00:33:41.256Z,0
2016-09-05T00:34:41.234Z,0
2016-09-05T00:35:41.218Z,0
2016-09-05T00:36:41.197Z,0
2016-09-05T00:37:41.169Z,0
2016-09-05T00:38:41.160Z,0
2016-09-05T00:39:41.122Z,0
2016-09-05T00:40:41.097Z,0
2016-09-05T00:41:41.082Z,0
2016-09-05T00:42:41.059Z,0
2016-09-05T00:43:41.034Z,0
2016-09-05T00:44:41.013Z,0
2016-09-05T00:45:40.987Z,0
2016-09-05T00:46:40.971Z,0
2016-09-05T00:47:40.946Z,0
2016-09-05T00:48:40.927Z,0
2016-09-05T00:49:40.903Z,0
2016-09-05T00:50:40.877Z,0
2016-09-05T00:51:40.861Z,0
2016-09-05T00:52:40.845Z,0
2016-09-05T00:53:40.817Z,0
2016-09-05T00:54:40.791Z,0
2016-09-05T00:55:40.765Z,0
2016-09-05T00:56:40.751Z,0
2016-09-05T00:57:40.725Z,0
2016-09-05T00:58:40.711Z,0
2016-09-05T00:59:40.682Z,0
2016-09-05T01:00:40.659Z,0
2016-09-05T01:01:40.654Z,0
2016-09-05T01:02:40.628Z,0
2016-09-05T01:03:40.600Z,0
2016-09-05T01:04:40.575Z,0
2016-09-05T01:05:40.551Z,0
2016-09-05T01:06:40.530Z,0
2016-09-05T01:07:40.506Z,0
2016-09-05T01:08:40.486Z,0
2016-09-05T01:09:40.461Z,0
2016-09-05T01:10:40.438Z,0
2016-09-05T01:11:40.422Z,0
2016-09-05T01:12:40.399Z,0
2016-09-05T01:13:40.378Z,0
2016-09-05T01:14:40.357Z,0
2016-09-05T01:15:40.336Z,0
2016-09-05T01:16:40.314Z,0
2016-09-05T01:17:40.288Z,0
2016-09-05T01:18:40.266Z,0
2016-09-05T01:19:40.279Z,0
2016-09-05T01:20:40.217Z,0
2016-09-05T01:21:40.200Z,0
2016-09-05T01:22:40.177Z,0
2016-09-05T01:23:40.153Z,0
2016-09-05T01:24:40.132Z,0
2016-09-05T01:25:40.108Z,0
2016-09-05T01:26:40.099Z,0
2016-09-05T01:27:40.067Z,0
2016-09-05T01:28:40.055Z,0
2016-09-05T01:29:40.025Z,0
2016-09-05T01:30:40.003Z,0
2016-09-05T01:31:39.981Z,0
2016-09-05T01:32:39.972Z,0
2016-09-05T01:33:39.933Z,0
2016-09-05T01:34:39.914Z,0
2016-09-05T01:35:39.903Z,0
2016-09-05T01:36:39.872Z,0
2016-09-05T01:37:39.849Z,0
2016-09-05T01:38:39.827Z,0
2016-09-05T01:39:39.808Z,0
2016-09-05T01:40:39.786Z,0
2016-09-05T01:41:39.775Z,0
2016-09-05T01:42:39.738Z,0
2016-09-05T01:43:39.715Z,0
2016-09-05T01:44:39.699Z,0
2016-09-05T01:45:39.673Z,0
2016-09-05T01:46:39.652Z,0
2016-09-05T01:47:39.630Z,0
2016-09-05T01:48:39.605Z,0
2016-09-05T01:49:40.285Z,0
2016-09-05T01:50:39.565Z,0
2016-09-05T01:51:39.545Z,0
2016-09-05T01:52:39.528Z,0
2016-09-05T01:53:39.495Z,0
2016-09-05T01:54:39.479Z,0
2016-09-05T01:55:39.458Z,0
2016-09-05T01:56:39.437Z,0
2016-09-05T01:57:39.415Z,0
2016-09-05T01:58:39.385Z,0
2016-09-05T01:59:39.370Z,0
2016-09-05T02:00:39.349Z,0
2016-09-05T02:01:39.330Z,0
2016-09-05T02:02:39.303Z,0
2016-09-05T02:03:39.282Z,0
2016-09-05T02:04:39.260Z,0
2016-09-05T02:05:39.248Z,0
2016-09-05T02:06:39.212Z,0
2016-09-05T02:07:39.195Z,0
2016-09-05T02:08:39.173Z,0
2016-09-05T02:09:39.158Z,0
2016-09-05T02:10:39.129Z,0
2016-09-05T02:11:39.106Z,0
2016-09-05T02:12:39.101Z,0
2016-09-05T02:13:39.074Z,0
2016-09-05T02:14:39.046Z,0
2016-09-05T02:15:39.023Z,0
2016-09-05T02:16:38.998Z,0
2016-09-05T02:17:38.982Z,0
2016-09-05T02:18:38.958Z,0
2016-09-05T02:19:38.937Z,0
2016-09-05T02:20:38.916Z,0
2016-09-05T02:21:38.887Z,0
2016-09-05T02:22:38.872Z,0
2016-09-05T02:23:38.849Z,0
2016-09-05T02:24:38.830Z,0
2016-09-05T02:25:38.806Z,0
2016-09-05T02:26:38.779Z,0
2016-09-05T02:27:38.767Z,0
2016-09-05T02:28:38.748Z,0
2016-09-05T02:29:38.715Z,0
2016-09-05T02:30:38.699Z,0
2016-09-05T02:31:38.675Z,0
2016-09-05T02:32:38.656Z,0
2016-09-05T02:33:38.630Z,0
2016-09-05T02:34:38.606Z,0
2016-09-05T02:35:38.589Z,0
2016-09-05T02:36:38.571Z,0
2016-09-05T02:37:38.551Z,0
2016-09-05T02:38:38.524Z,0
2016-09-05T02:39:38.498Z,0
2016-09-05T02:40:38.482Z,0
2016-09-05T02:41:38.459Z,0
2016-09-05T02:42:38.443Z,0
2016-09-05T02:43:38.415Z,0
2016-09-05T02:44:38.394Z,0
2016-09-05T02:45:38.380Z,0
2016-09-05T02:46:38.350Z,0
2016-09-05T02:47:38.329Z,0
2016-09-05T02:48:38.307Z,0
2016-09-05T02:49:38.280Z,0
2016-09-05T02:50:38.267Z,0
2016-09-05T02:51:38.238Z,0
2016-09-05T02:52:38.232Z,0
2016-09-05T02:53:38.197Z,0
2016-09-05T02:54:38.172Z,0
2016-09-05T02:55:38.156Z,0
2016-09-05T02:56:38.135Z,0
2016-09-05T02:57:38.113Z,0
2016-09-05T02:58:38.089Z,0
2016-09-05T02:59:38.065Z,0
2016-09-05T03:00:38.049Z,0
2016-09-05T03:01:38.032Z,0
2016-09-05T03:02:38.001Z,0
2016-09-05T03:03:37.982Z,0
2016-09-05T03:04:37.963Z,0
2016-09-05T03:05:37.943Z,0
2016-09-05T03:06:37.925Z,0
2016-09-05T03:07:37.891Z,0
2016-09-05T03:08:37.886Z,0
2016-09-05T03:09:37.861Z,0
2016-09-05T03:10:37.827Z,0
2016-09-05T03:11:38.502Z,0
2016-09-05T03:12:37.787Z,0
2016-09-05T03:13:37.769Z,0
2016-09-05T03:14:37.750Z,0
2016-09-05T03:15:37.723Z,0
2016-09-05T03:16:37.703Z,0
2016-09-05T03:17:37.696Z,0
2016-09-05T03:18:37.654Z,0
2016-09-05T03:19:37.637Z,0
2016-09-05T03:20:37.614Z,0
2016-09-05T03:21:37.597Z,0
2016-09-05T03:22:37.571Z,0
2016-09-05T03:23:37.554Z,0
2016-09-05T03:24:38.221Z,0
2016-09-05T03:25:37.507Z,0
2016-09-05T03:26:37.483Z,0
2016-09-05T03:27:37.466Z,0
2016-09-05T03:28:37.443Z,0
2016-09-05T03:29:37.428Z,0
2016-09-05T03:30:37.400Z,0
2016-09-05T03:31:37.379Z,0
2016-09-05T03:32:37.357Z,0
2016-09-05T03:33:37.341Z,0
2016-09-05T03:34:37.319Z,0
2016-09-05T03:35:37.293Z,0
2016-09-05T03:36:37.277Z,0
2016-09-05T03:37:37.254Z,0
2016-09-05T03:38:37.233Z,0
2016-09-05T03:39:37.200Z,0
2016-09-05T03:40:37.184Z,0
2016-09-05T03:41:37.170Z,0
2016-09-05T03:42:37.137Z,0
2016-09-05T03:43:37.121Z,0
2016-09-05T03:44:37.100Z,0
2016-09-05T03:45:37.072Z,0
2016-09-05T03:46:37.061Z,0
2016-09-05T03:47:37.040Z,0
2016-09-05T03:48:37.013Z,0
2016-09-05T03:49:36.998Z,0
2016-09-05T03:50:36.968Z,0
2016-09-05T03:51:36.951Z,0
2016-09-05T03:52:36.929Z,0
2016-09-05T03:53:36.909Z,0
2016-09-05T03:54:36.889Z,0
2016-09-05T03:55:36.869Z,0
2016-09-05T03:56:36.836Z,0
2016-09-05T03:57:37.511Z,0
2016-09-05T03:58:36.805Z,0
2016-09-05T03:59:36.778Z,0
2016-09-05T04:00:36.758Z,0
2016-09-05T04:01:36.733Z,0
2016-09-05T04:02:36.714Z,0
2016-09-05T04:03:36.696Z,0
2016-09-05T04:04:36.665Z,0
2016-09-05T04:05:36.661Z,0
2016-09-05T04:06:36.624Z,0
2016-09-05T04:07:36.602Z,0
2016-09-05T04:08:36.583Z,0
2016-09-05T04:09:36.567Z,0
2016-09-05T04:10:37.251Z,0
2016-09-05T04:11:36.519Z,0
2016-09-05T04:12:36.497Z,0
2016-09-05T04:13:36.484Z,0
2016-09-05T04:14:36.457Z,0
2016-09-05T04:15:36.429Z,0
2016-09-05T04:16:36.412Z,0
2016-09-05T04:17:36.390Z,0
2016-09-05T04:18:36.368Z,0
2016-09-05T04:19:36.354Z,0
2016-09-05T04:20:36.327Z,0
2016-09-05T04:21:36.308Z,0
2016-09-05T04:22:36.289Z,0
2016-09-05T04:23:36.258Z,0
2016-09-05T04:24:36.243Z,0
2016-09-05T04:25:36.222Z,0
2016-09-05T04:26:36.197Z,0
2016-09-05T04:27:36.191Z,0
2016-09-05T04:28:36.155Z,0
2016-09-05T04:29:36.130Z,0
2016-09-05T04:30:36.114Z,0
2016-09-05T04:31:36.094Z,0
2016-09-05T04:32:36.072Z,0
2016-09-05T04:33:36.056Z,0
2016-09-05T04:34:36.023Z,0
2016-09-05T04:35:36.007Z,0
2016-09-05T04:36:35.984Z,0
2016-09-05T04:37:36.649Z,0
2016-09-05T04:38:35.943Z,0
2016-09-05T04:39:35.922Z,0
2016-09-05T04:40:35.900Z,0
2016-09-05T04:41:35.880Z,0
2016-09-05T04:42:35.864Z,0
2016-09-05T04:43:35.833Z,5
2016-09-05T04:44:35.824Z,5
2016-09-05T04:45:35.801Z,5
2016-09-05T04:46:35.772Z,5
2016-09-05T04:47:36.445Z,10
2016-09-05T04:48:35.724Z,10
2016-09-05T04:49:35.708Z,10
2016-09-05T04:50:35.685Z,10
2016-09-05T04:51:35.664Z,15
2016-09-05T04:52:35.643Z,15
2016-09-05T04:53:35.630Z,15
2016-09-05T04:54:35.599Z,15
2016-09-05T04:55:35.580Z,20
2016-09-05T04:56:35.558Z,20
2016-09-05T04:57:35.536Z,20
2016-09-05T04:58:36.209Z,20
2016-09-05T04:59:35.496Z,20
2016-09-05T05:00:35.474Z,20
2016-09-05T05:01:35.453Z,25
2016-09-05T05:02:35.427Z,25
2016-09-05T05:03:35.408Z,25
2016-09-05T05:04:35.392Z,25
2016-09-05T05:05:35.370Z,25
2016-09-05T05:06:35.346Z,25
2016-09-05T05:07:35.331Z,30
2016-09-05T05:08:35.301Z,30
2016-09-05T05:09:35.281Z,30
2016-09-05T05:10:35.261Z,30
2016-09-05T05:11:35.238Z,30
2016-09-05T05:12:35.223Z,30
2016-09-05T05:13:35.200Z,30
2016-09-05T05:14:35.180Z,30
2016-09-05T05:15:35.154Z,30
2016-09-05T05:16:35.128Z,40
2016-09-05T05:17:35.112Z,40
2016-09-05T05:18:35.088Z,35
2016-09-05T05:19:35.064Z,40
2016-09-05T05:20:35.061Z,40
2016-09-05T05:21:35.025Z,35
2016-09-05T05:22:35.005Z,35
2016-09-05T05:23:34.983Z,35
2016-09-05T05:24:34.963Z,35
2016-09-05T05:25:34.944Z,30
2016-09-05T05:26:34.921Z,35
2016-09-05T05:27:34.897Z,35
2016-09-05T05:28:34.878Z,30
2016-09-05T05:29:34.854Z,25
2016-09-05T05:30:34.831Z,30
2016-09-05T05:31:34.814Z,35
2016-09-05T05:32:34.792Z,40
2016-09-05T05:33:34.766Z,40
2016-09-05T05:34:34.764Z,50
2016-09-05T05:35:34.735Z,45
2016-09-05T05:36:34.707Z,40
2016-09-05T05:37:34.687Z,45
2016-09-05T05:38:34.663Z,55
2016-09-05T05:39:34.641Z,55
2016-09-05T05:40:34.620Z,50
2016-09-05T05:41:34.598Z,55
2016-09-05T05:42:35.265Z,55
2016-09-05T05:43:34.558Z,50
2016-09-05T05:44:34.541Z,50
2016-09-05T05:45:34.547Z,45
2016-09-05T05:46:34.497Z,45
2016-09-05T05:47:34.466Z,50
2016-09-05T05:48:34.501Z,45
2016-09-05T05:49:34.430Z,55
2016-09-05T05:50:34.401Z,60
2016-09-05T05:51:34.390Z,60
2016-09-05T05:52:34.360Z,60
2016-09-05T05:53:34.335Z,70
2016-09-05T05:54:34.322Z,80
2016-09-05T05:55:34.305Z,80
2016-09-05T05:56:34.274Z,95
2016-09-05T05:57:34.259Z,95
2016-09-05T05:58:34.230Z,90
2016-09-05T05:59:34.207Z,95
2016-09-05T06:00:34.189Z,95
2016-09-05T06:01:34.165Z,95
2016-09-05T06:02:34.147Z,105
2016-09-05T06:03:34.124Z,100
2016-09-05T06:04:34.105Z,90
2016-09-05T06:05:34.094Z,100
2016-09-05T06:06:34.065Z,105
2016-09-05T06:07:34.036Z,95
2016-09-05T06:08:34.023Z,95
2016-09-05T06:09:33.999Z,95
2016-09-05T06:10:33.989Z,110
2016-09-05T06:11:33.955Z,115
2016-09-05T06:12:33.933Z,120
2016-09-05T06:13:33.915Z,120
2016-09-05T06:14:33.891Z,120
2016-09-05T06:15:33.864Z,120
2016-09-05T06:16:33.855Z,130
2016-09-05T06:17:33.825Z,160
2016-09-05T06:18:33.808Z,215
2016-09-05T06:19:33.784Z,255
2016-09-05T06:20:33.773Z,245
2016-09-05T06:21:33.741Z,255
2016-09-05T06:22:33.718Z,245
2016-09-05T06:23:33.695Z,215
2016-09-05T06:24:33.691Z,220
2016-09-05T06:25:33.657Z,230
2016-09-05T06:26:33.631Z,255
2016-09-05T06:27:33.613Z,260
2016-09-05T06:28:33.594Z,230
2016-09-05T06:29:33.568Z,215
2016-09-05T06:30:33.554Z,215
2016-09-05T06:31:33.534Z,210
2016-09-05T06:32:33.505Z,190
2016-09-05T06:33:33.490Z,165
2016-09-05T06:34:33.469Z,155
2016-09-05T06:35:33.460Z,200
2016-09-05T06:36:33.425Z,235
2016-09-05T06:37:33.409Z,255
2016-09-05T06:38:33.381Z,300
2016-09-05T06:39:34.066Z,385
2016-09-05T06:40:33.340Z,345
2016-09-05T06:41:33.325Z,305
2016-09-05T06:42:33.315Z,285
2016-09-05T06:43:33.276Z,300
2016-09-05T06:44:33.264Z,320
2016-09-05T06:45:33.244Z,330
2016-09-05T06:46:33.214Z,400
2016-09-05T06:47:33.195Z,450
2016-09-05T06:48:33.175Z,340
2016-09-05T06:49:33.155Z,270
2016-09-05T06:50:33.135Z,265
2016-09-05T06:51:33.872Z,260
2016-09-05T06:52:33.107Z,265
2016-09-05T06:53:33.074Z,295
2016-09-05T06:54:33.051Z,345
2016-09-05T06:55:33.034Z,430
2016-09-05T06:56:33.024Z,460
2016-09-05T06:57:33.001Z,385
2016-09-05T06:58:32.980Z,250
2016-09-05T06:59:32.954Z,175
2016-09-05T07:00:32.935Z,135
2016-09-05T07:01:33.042Z,130
2016-09-05T07:02:32.892Z,110
2016-09-05T07:03:32.869Z,130
2016-09-05T07:04:33.551Z,125
2016-09-05T07:05:32.854Z,145
2016-09-05T07:06:32.816Z,190
2016-09-05T07:07:32.793Z,265
2016-09-05T07:08:32.772Z,355
2016-09-05T07:09:34.599Z,520
2016-09-05T07:10:34.703Z,580
2016-09-05T07:11:35.127Z,450
2016-09-05T07:12:32.694Z,465
2016-09-05T07:13:32.675Z,435
2016-09-05T07:14:32.659Z,485
2016-09-05T07:15:33.340Z,480
2016-09-05T07:16:32.622Z,460
2016-09-05T07:17:32.593Z,475
2016-09-05T07:18:32.574Z,590
2016-09-05T07:19:32.555Z,730
2016-09-05T07:20:32.528Z,560
2016-09-05T07:21:32.516Z,410
2016-09-05T07:22:32.506Z,440
2016-09-05T07:23:32.480Z,420
2016-09-05T07:24:32.491Z,345
2016-09-05T07:25:32.447Z,450
2016-09-05T07:26:32.421Z,555
2016-09-05T07:27:32.399Z,660
2016-09-05T07:28:33.070Z,760
2016-09-05T07:29:32.366Z,650
2016-09-05T07:30:32.345Z,490
2016-09-05T07:31:32.321Z,590
2016-09-05T07:32:32.303Z,675
2016-09-05T07:33:32.284Z,775
2016-09-05T07:34:32.958Z,780
2016-09-05T07:35:32.249Z,750
2016-09-05T07:36:32.233Z,765
2016-09-05T07:37:32.213Z,820
2016-09-05T07:38:32.189Z,925
2016-09-05T07:39:32.179Z,790
2016-09-05T07:40:32.155Z,860
2016-09-05T07:41:32.828Z,675
2016-09-05T07:42:32.124Z,565
2016-09-05T07:43:32.107Z,595
2016-09-05T07:44:32.090Z,490
2016-09-05T07:45:32.065Z,565
2016-09-05T07:46:32.049Z,680
2016-09-05T07:47:32.720Z,615
2016-09-05T07:48:32.011Z,445
2016-09-05T07:49:31.991Z,380
2016-09-05T07:50:31.975Z,290
2016-09-05T07:51:31.956Z,255
2016-09-05T07:52:31.943Z,220
2016-09-05T07:53:32.610Z,220
2016-09-05T07:54:31.964Z,240
2016-09-05T07:55:31.879Z,245
2016-09-05T07:56:31.871Z,285
2016-09-05T07:57:31.844Z,330
2016-09-05T07:58:31.821Z,315
2016-09-05T07:59:31.827Z,265
2016-09-05T08:00:31.952Z,220
2016-09-05T08:01:31.769Z,265
2016-09-05T08:02:31.756Z,395
2016-09-05T08:03:31.735Z,430
2016-09-05T08:04:31.718Z,450
2016-09-05T08:05:31.708Z,560
2016-09-05T08:06:31.675Z,680
2016-09-05T08:07:31.657Z,695
2016-09-05T08:08:31.638Z,720
2016-09-05T08:09:31.624Z,810
2016-09-05T08:10:31.596Z,800
2016-09-05T08:11:31.580Z,785
2016-09-05T08:12:31.563Z,730
2016-09-05T08:13:31.551Z,730
2016-09-05T08:14:31.544Z,845
2016-09-05T08:15:32.208Z,890
2016-09-05T08:16:31.490Z,915
2016-09-05T08:17:31.476Z,905
2016-09-05T08:18:31.452Z,805
2016-09-05T08:19:31.432Z,735
2016-09-05T08:20:31.412Z,695
2016-09-05T08:21:31.392Z,690
2016-09-05T08:22:31.382Z,695
2016-09-05T08:23:31.358Z,775
2016-09-05T08:24:31.338Z,735
2016-09-05T08:25:31.327Z,690
2016-09-05T08:26:31.302Z,790
2016-09-05T08:27:31.284Z,830
2016-09-05T08:28:31.269Z,785
2016-09-05T08:29:31.255Z,720
2016-09-05T08:30:31.231Z,700
2016-09-05T08:31:31.223Z,695
2016-09-05T08:32:31.202Z,700
2016-09-05T08:33:31.179Z,855
2016-09-05T08:34:31.166Z,980
2016-09-05T08:35:31.150Z,845
2016-09-05T08:36:31.126Z,745
2016-09-05T08:37:31.112Z,645
2016-09-05T08:38:31.093Z,595
2016-09-05T08:39:31.075Z,680
2016-09-05T08:40:31.758Z,705
2016-09-05T08:41:31.047Z,825
2016-09-05T08:42:31.022Z,905
2016-09-05T08:43:31.001Z,825
2016-09-05T08:44:30.990Z,865
2016-09-05T08:45:30.966Z,890
2016-09-05T08:46:31.693Z,895
2016-09-05T08:47:30.933Z,885
2016-09-05T08:48:30.918Z,780
2016-09-05T08:49:30.899Z,1010
2016-09-05T08:50:30.883Z,1040
2016-09-05T08:51:30.885Z,835
2016-09-05T08:52:30.856Z,975
2016-09-05T08:53:30.832Z,1000
2016-09-05T08:54:30.822Z,885
2016-09-05T08:55:30.802Z,935
2016-09-05T08:56:30.890Z,945
2016-09-05T08:57:30.814Z,725
2016-09-05T08:58:30.747Z,690
2016-09-05T08:59:30.754Z,880
2016-09-05T09:00:30.710Z,1090
2016-09-05T09:01:30.700Z,1155
2016-09-05T09:02:30.682Z,1205
2016-09-05T09:03:30.656Z,1325
2016-09-05T09:04:31.337Z,1205
2016-09-05T09:05:30.628Z,950
2016-09-05T09:06:30.610Z,735
2016-09-05T09:07:30.598Z,560
2016-09-05T09:08:30.587Z,555
2016-09-05T09:09:30.564Z,540
2016-09-05T09:10:30.547Z,510
2016-09-05T09:11:30.527Z,520
2016-09-05T09:12:30.515Z,640
2016-09-05T09:13:30.500Z,650
2016-09-05T09:14:30.475Z,640
2016-09-05T09:15:30.463Z,700
2016-09-05T09:16:30.444Z,740
2016-09-05T09:17:30.428Z,785
2016-09-05T09:18:30.415Z,735
2016-09-05T09:19:30.396Z,565
2016-09-05T09:20:30.385Z,450
2016-09-05T09:21:30.363Z,415
2016-09-05T09:22:30.340Z,480
2016-09-05T09:23:30.328Z,570
2016-09-05T09:24:30.314Z,630
2016-09-05T09:25:30.350Z,630
2016-09-05T09:26:30.276Z,625
2016-09-05T09:27:30.261Z,610
2016-09-05T09:28:30.359Z,580
2016-09-05T09:29:30.229Z,630
2016-09-05T09:30:31.174Z,630
2016-09-05T09:31:31.246Z,675
2016-09-05T09:32:34.038Z,700
2016-09-05T09:33:30.305Z,725
2016-09-05T09:34:30.134Z,805
2016-09-05T09:35:30.115Z,910
2016-09-05T09:36:31.604Z,930
2016-09-05T09:37:30.081Z,795
2016-09-05T09:38:30.803Z,645
2016-09-05T09:39:30.048Z,630
2016-09-05T09:40:30.202Z,595
2016-09-05T09:41:30.009Z,615
2016-09-05T09:42:30.001Z,690
2016-09-05T09:43:29.974Z,840
2016-09-05T09:44:29.960Z,1020
2016-09-05T09:45:29.940Z,1100
2016-09-05T09:46:29.926Z,900
2016-09-05T09:47:29.902Z,880
2016-09-05T09:48:29.894Z,910
2016-09-05T09:49:29.879Z,935
2016-09-05T09:50:29.851Z,975
2016-09-05T09:51:29.836Z,1060
2016-09-05T09:52:29.817Z,1130
2016-09-05T09:53:29.803Z,1085
2016-09-05T09:54:29.798Z,970
2016-09-05T09:55:31.172Z,925
2016-09-05T09:56:29.769Z,995
2016-09-05T09:57:29.745Z,1155
2016-09-05T09:58:30.796Z,1160
2016-09-05T09:59:29.701Z,960
2016-09-05T10:00:30.662Z,995
2016-09-05T10:01:29.673Z,1180
2016-09-05T10:02:29.653Z,1160
2016-09-05T10:03:30.410Z,1105
2016-09-05T10:04:29.617Z,1075
2016-09-05T10:05:29.610Z,1010
2016-09-05T10:06:29.588Z,1050
2016-09-05T10:07:29.570Z,1115
2016-09-05T10:08:29.565Z,965
2016-09-05T10:09:29.542Z,850
2016-09-05T10:10:29.541Z,930
2016-09-05T10:11:29.518Z,945
2016-09-05T10:12:29.498Z,925
2016-09-05T10:13:29.483Z,800
2016-09-05T10:14:29.475Z,575
2016-09-05T10:15:29.448Z,415
2016-09-05T10:16:29.453Z,305
2016-09-05T10:17:29.424Z,295
2016-09-05T10:18:29.401Z,365
2016-09-05T10:19:29.401Z,480
2016-09-05T10:20:29.371Z,585
2016-09-05T10:21:29.354Z,685
2016-09-05T10:22:29.343Z,815
2016-09-05T10:23:29.328Z,995
2016-09-05T10:24:29.309Z,1190
2016-09-05T10:25:29.302Z,1345
2016-09-05T10:26:29.275Z,1410
2016-09-05T10:27:29.268Z,1410
2016-09-05T10:28:29.954Z,1410
2016-09-05T10:29:29.235Z,1445
2016-09-05T10:30:29.222Z,1425
2016-09-05T10:31:29.203Z,1360
2016-09-05T10:32:29.181Z,1245
2016-09-05T10:33:29.172Z,1110
2016-09-05T10:34:29.155Z,1035
2016-09-05T10:35:29.140Z,1020
2016-09-05T10:36:29.126Z,1050
2016-09-05T10:37:29.110Z,1120
2016-09-05T10:38:29.098Z,1235
2016-09-05T10:39:29.083Z,1300
2016-09-05T10:40:29.065Z,1285
2016-09-05T10:41:29.053Z,1270
2016-09-05T10:42:29.039Z,1255
2016-09-05T10:43:29.748Z,1220
2016-09-05T10:44:29.009Z,1170
2016-09-05T10:45:28.995Z,1150
2016-09-05T10:46:29.130Z,1130
2016-09-05T10:47:28.964Z,1065
2016-09-05T10:48:29.814Z,950
2016-09-05T10:49:28.936Z,915
2016-09-05T10:50:29.616Z,980
2016-09-05T10:51:28.901Z,1025
2016-09-05T10:52:30.290Z,1045
2016-09-05T10:53:28.874Z,1075
2016-09-05T10:54:28.869Z,1160
2016-09-05T10:55:28.847Z,1260
2016-09-05T10:56:28.839Z,1360
2016-09-05T10:57:28.829Z,1520
2016-09-05T10:58:28.810Z,1580
2016-09-05T10:59:28.792Z,1480
2016-09-05T11:00:28.781Z,1315
2016-09-05T11:01:28.771Z,1255
2016-09-05T11:02:28.747Z,1200
2016-09-05T11:03:28.740Z,1160
2016-09-05T11:04:28.734Z,1220
2016-09-05T11:05:28.715Z,1245
2016-09-05T11:06:28.691Z,1215
2016-09-05T11:07:28.736Z,1130
2016-09-05T11:08:28.664Z,1065
2016-09-05T11:09:28.650Z,1030
2016-09-05T11:10:28.634Z,1050
2016-09-05T11:11:28.621Z,1095
2016-09-05T11:12:28.611Z,1130
2016-09-05T11:13:28.588Z,1180
2016-09-05T11:14:28.602Z,1200
2016-09-05T11:15:28.563Z,1240
2016-09-05T11:16:28.547Z,1280
2016-09-05T11:17:28.537Z,1270
2016-09-05T11:18:28.526Z,1295
2016-09-05T11:19:28.503Z,1285
2016-09-05T11:20:28.496Z,1230
2016-09-05T11:21:29.172Z,1205
2016-09-05T11:22:28.463Z,1200
2016-09-05T11:23:28.454Z,1135
2016-09-05T11:24:28.440Z,1080
2016-09-05T11:25:28.434Z,1005
2016-09-05T11:26:28.427Z,1025
2016-09-05T11:27:28.398Z,1105
2016-09-05T11:28:28.390Z,1095
2016-09-05T11:29:28.377Z,1020
2016-09-05T11:30:28.352Z,885
2016-09-05T11:31:28.355Z,840
2016-09-05T11:32:28.327Z,840
2016-09-05T11:33:28.311Z,805
2016-09-05T11:34:28.303Z,795
2016-09-05T11:35:28.288Z,750
2016-09-05T11:36:28.273Z,720
2016-09-05T11:37:28.257Z,700
2016-09-05T11:38:28.241Z,700
2016-09-05T11:39:28.229Z,695
2016-09-05T11:40:28.221Z,720
2016-09-05T11:41:28.198Z,810
2016-09-05T11:42:28.188Z,895
2016-09-05T11:43:28.276Z,930
2016-09-05T11:44:28.174Z,950
2016-09-05T11:45:28.163Z,860
2016-09-05T11:46:28.158Z,850
2016-09-05T11:47:28.130Z,945
2016-09-05T11:48:28.108Z,955
2016-09-05T11:49:28.092Z,895
2016-09-05T11:50:28.072Z,965
2016-09-05T11:51:28.066Z,1060
2016-09-05T11:52:30.828Z,1195
2016-09-05T11:53:29.441Z,1200
2016-09-05T11:54:28.730Z,1025
2016-09-05T11:55:28.006Z,875
2016-09-05T11:56:30.098Z,815
2016-09-05T11:57:31.332Z,820
2016-09-05T11:58:28.941Z,850
2016-09-05T11:59:29.621Z,860
2016-09-05T12:00:31.847Z,815
2016-09-05T12:01:27.904Z,775
2016-09-05T12:02:27.887Z,750
2016-09-05T12:03:27.880Z,785
2016-09-05T12:04:27.859Z,835
2016-09-05T12:05:27.842Z,860
2016-09-05T12:06:27.826Z,810
2016-09-05T12:07:27.814Z,810
2016-09-05T12:08:27.798Z,785
2016-09-05T12:09:28.102Z,750
2016-09-05T12:10:28.462Z,775
2016-09-05T12:11:29.612Z,815
2016-09-05T12:12:28.769Z,810
2016-09-05T12:13:29.359Z,815
2016-09-05T12:14:28.678Z,785
2016-09-05T12:15:28.627Z,870
2016-09-05T12:16:27.854Z,935
2016-09-05T12:17:27.660Z,950
2016-09-05T12:18:27.647Z,925
2016-09-05T12:19:27.634Z,945
2016-09-05T12:20:28.307Z,930
2016-09-05T12:21:27.603Z,895
2016-09-05T12:22:27.591Z,885
2016-09-05T12:23:27.568Z,805
2016-09-05T12:24:27.578Z,685
2016-09-05T12:25:27.545Z,595
2016-09-05T12:26:27.525Z,490
2016-09-05T12:27:27.516Z,425
2016-09-05T12:28:27.500Z,370
2016-09-05T12:29:27.531Z,340
2016-09-05T12:30:27.483Z,335
2016-09-05T12:31:27.457Z,370
2016-09-05T12:32:27.436Z,430
2016-09-05T12:33:27.428Z,530
2016-09-05T12:34:27.703Z,620
2016-09-05T12:35:27.391Z,710
2016-09-05T12:36:27.398Z,800
2016-09-05T12:37:27.362Z,850
2016-09-05T12:38:27.342Z,870
2016-09-05T12:39:27.337Z,900
2016-09-05T12:40:27.335Z,955
2016-09-05T12:41:27.321Z,1075
2016-09-05T12:42:27.315Z,1205
2016-09-05T12:43:28.053Z,1340
2016-09-05T12:44:27.259Z,1365
2016-09-05T12:45:27.254Z,1360
2016-09-05T12:46:27.362Z,1355
2016-09-05T12:47:27.522Z,1370
2016-09-05T12:48:27.210Z,1420
2016-09-05T12:49:27.186Z,1440
2016-09-05T12:50:27.177Z,1435
2016-09-05T12:51:27.161Z,1440
2016-09-05T12:52:27.443Z,1440
2016-09-05T12:53:27.135Z,1410
2016-09-05T12:54:27.114Z,1365
2016-09-05T12:55:27.108Z,1285
2016-09-05T12:56:27.089Z,1200
2016-09-05T12:57:27.076Z,1175
2016-09-05T12:58:27.065Z,1165
2016-09-05T12:59:27.050Z,1125
2016-09-05T13:00:27.039Z,1110
2016-09-05T13:01:27.023Z,1085
2016-09-05T13:02:27.318Z,1130
2016-09-05T13:03:27.051Z,1190
2016-09-05T13:04:27.303Z,1220
2016-09-05T13:05:26.971Z,1215
2016-09-05T13:06:26.957Z,1260
2016-09-05T13:07:26.962Z,1195
2016-09-05T13:08:26.946Z,1150
2016-09-05T13:09:26.917Z,1155
2016-09-05T13:10:26.913Z,1190
2016-09-05T13:11:26.906Z,1170
2016-09-05T13:12:26.877Z,1125
2016-09-05T13:13:26.873Z,1105
2016-09-05T13:14:26.856Z,1095
2016-09-05T13:15:26.841Z,1070
2016-09-05T13:16:26.848Z,1010
2016-09-05T13:17:26.824Z,950
2016-09-05T13:18:26.805Z,920
2016-09-05T13:19:26.792Z,885
2016-09-05T13:20:26.787Z,845
2016-09-05T13:21:26.765Z,815
2016-09-05T13:22:26.762Z,790
2016-09-05T13:23:26.741Z,810
2016-09-05T13:24:26.726Z,815
2016-09-05T13:25:26.715Z,805
2016-09-05T13:26:26.703Z,820
2016-09-05T13:27:26.690Z,835
2016-09-05T13:28:26.673Z,865
2016-09-05T13:29:26.670Z,915
2016-09-05T13:30:26.647Z,950
2016-09-05T13:31:26.630Z,990
2016-09-05T13:32:26.628Z,1030
2016-09-05T13:33:26.609Z,1075
2016-09-05T13:34:26.590Z,1090
2016-09-05T13:35:26.585Z,1145
2016-09-05T13:36:26.573Z,1160
2016-09-05T13:37:26.849Z,1165
2016-09-05T13:38:26.542Z,1185
2016-09-05T13:39:26.530Z,1145
2016-09-05T13:40:26.513Z,1040
2016-09-05T13:41:26.503Z,885
2016-09-05T13:42:26.490Z,825
2016-09-05T13:43:26.476Z,790
2016-09-05T13:44:26.465Z,770
2016-09-05T13:45:26.450Z,775
2016-09-05T13:46:26.746Z,775
2016-09-05T13:47:26.424Z,845
2016-09-05T13:48:26.411Z,915
2016-09-05T13:49:26.401Z,860
2016-09-05T13:50:26.389Z,875
2016-09-05T13:51:26.377Z,860
2016-09-05T13:52:26.368Z,835
2016-09-05T13:53:26.344Z,810
2016-09-05T13:54:26.336Z,785
2016-09-05T13:55:26.316Z,755
2016-09-05T13:56:26.311Z,730
2016-09-05T13:57:26.289Z,705
2016-09-05T13:58:26.314Z,685
2016-09-05T13:59:26.263Z,665
2016-09-05T14:00:26.249Z,665
2016-09-05T14:01:26.242Z,670
2016-09-05T14:02:26.221Z,665
2016-09-05T14:03:26.207Z,665